createdAt,value
2023-05-22T00:00:09.254Z,99209.53
2023-05-22T00:03:11.486Z,99193.94
2023-05-22T00:06:15.035Z,99197.50
2023-05-22T00:09:17.507Z,99186.78
2023-05-22T00:12:19.783Z,99191.34
2023-05-22T00:15:22.013Z,99196.38
2023-05-22T00:18:25.529Z,99200.44
2023-05-22T00:21:27.989Z,99208.56
2023-05-22T00:24:30.287Z,99204.62
2023-05-22T00:27:33.221Z,99207.69
2023-05-22T00:30:36.998Z,99205.63
2023-05-22T00:33:39.428Z,99201.59
2023-05-22T00:36:41.741Z,99195.03
2023-05-22T00:39:44.026Z,99195.50
2023-05-22T00:42:46.940Z,99203.16
2023-05-22T00:45:49.337Z,99205.47
2023-05-22T00:48:52.619Z,99196.16
2023-05-22T00:51:55.256Z,99194.53
2023-05-22T00:54:57.609Z,99199.22
2023-05-22T00:58:01.203Z,99204.25
2023-05-22T01:01:03.608Z,99198.09
2023-05-22T01:04:08.157Z,99198.09
2023-05-22T01:07:10.519Z,99194.69
2023-05-22T01:10:12.823Z,99191.31
2023-05-22T01:13:50.684Z,99184.13
2023-05-22T01:17:00.118Z,99192.87
2023-05-22T01:20:10.253Z,99186.22
2023-05-22T01:23:30.034Z,99181.72
2023-05-22T01:26:45.571Z,99189.97
2023-05-22T01:30:21.396Z,99185.19
2023-05-22T01:33:27.112Z,99201.41
2023-05-22T01:36:32.073Z,99193.94
2023-05-22T01:39:34.500Z,99194.47
2023-05-22T01:42:36.857Z,99187.63
2023-05-22T01:45:39.160Z,99194.16
2023-05-22T01:48:41.393Z,99192.75
2023-05-22T01:51:57.936Z,99189.97
2023-05-22T01:55:21.272Z,99191.47
2023-05-22T01:58:34.525Z,99172.06
2023-05-22T02:01:38.387Z,99171.00
2023-05-22T02:04:45.443Z,99169.19
2023-05-22T02:07:48.003Z,99172.41
2023-05-22T02:10:51.290Z,99169.69
2023-05-22T02:13:53.550Z,99177.09
2023-05-22T02:16:56.826Z,99169.03
2023-05-22T02:19:59.037Z,99169.44
2023-05-22T02:23:01.243Z,99172.44
2023-05-22T02:26:04.769Z,99174.03
2023-05-22T02:29:07.004Z,99167.22
2023-05-22T02:32:09.277Z,99171.28
2023-05-22T02:35:12.018Z,99169.34
2023-05-22T02:38:14.249Z,99167.12
2023-05-22T02:41:16.479Z,99171.03
2023-05-22T02:44:18.706Z,99169.59
2023-05-22T02:47:20.965Z,99171.88
2023-05-22T02:50:23.157Z,99172.31
2023-05-22T02:53:25.364Z,99161.63
2023-05-22T02:56:28.972Z,99166.44
2023-05-22T02:59:31.736Z,99164.25
2023-05-22T03:02:34.577Z,99164.84
2023-05-22T03:05:37.060Z,99165.69
2023-05-22T03:08:43.440Z,99157.34
2023-05-22T03:11:45.835Z,99149.81
2023-05-22T03:14:48.059Z,99156.53
2023-05-22T03:17:50.410Z,99149.88
2023-05-22T03:20:52.760Z,99156.09
2023-05-22T03:23:55.043Z,99156.69
2023-05-22T03:26:57.249Z,99157.78
2023-05-22T03:29:59.447Z,99157.06
2023-05-22T03:33:01.882Z,99152.25
2023-05-22T03:36:04.706Z,99148.47
2023-05-22T03:39:06.923Z,99155.78
2023-05-22T03:42:09.262Z,99162.09
2023-05-22T03:45:11.802Z,99168.16
2023-05-22T03:48:13.992Z,99162.84
2023-05-22T03:51:18.672Z,99161.94
2023-05-22T03:54:22.277Z,99157.72
2023-05-22T03:57:24.595Z,99159.56
2023-05-22T04:00:27.162Z,99152.34
2023-05-22T04:03:29.553Z,99159.78
2023-05-22T04:06:33.102Z,99165.69
2023-05-22T04:09:36.298Z,99162.97
2023-05-22T04:12:38.577Z,99156.03
2023-05-22T04:15:46.831Z,99147.94
2023-05-22T04:18:49.184Z,99154.19
2023-05-22T04:21:51.401Z,99154.56
2023-05-22T04:24:53.773Z,99157.38
2023-05-22T04:27:56.032Z,99159.28
2023-05-22T04:30:58.296Z,99163.31
2023-05-22T04:34:01.155Z,99156.75
2023-05-22T04:37:04.871Z,99155.09
2023-05-22T04:40:08.788Z,99152.91
2023-05-22T04:43:14.158Z,99142.63
2023-05-22T04:46:16.502Z,99148.03
2023-05-22T04:49:18.745Z,99149.91
2023-05-22T04:52:21.892Z,99151.31
2023-05-22T04:55:24.158Z,99158.59
2023-05-22T04:58:27.485Z,99149.44
2023-05-22T05:01:31.671Z,99154.19
2023-05-22T05:04:35.173Z,99149.72
2023-05-22T05:07:38.855Z,99144.00
2023-05-22T05:10:41.232Z,99148.06
2023-05-22T05:13:43.726Z,99148.37
2023-05-22T05:16:46.867Z,99150.84
2023-05-22T05:19:49.091Z,99149.25
2023-05-22T05:22:51.484Z,99149.97
2023-05-22T05:25:53.752Z,99153.47
2023-05-22T05:28:56.920Z,99170.87
2023-05-22T05:31:59.164Z,99190.97
2023-05-22T05:35:01.373Z,99196.50
2023-05-22T05:38:04.022Z,99195.56
2023-05-22T05:41:06.475Z,99191.19
2023-05-22T05:44:08.700Z,99203.81
2023-05-22T05:47:11.217Z,99201.22
2023-05-22T05:50:15.673Z,99197.59
2023-05-22T05:53:17.937Z,99190.16
2023-05-22T05:56:20.211Z,99197.41
2023-05-22T05:59:22.529Z,99193.13
2023-05-22T06:02:24.876Z,99191.97
2023-05-22T06:05:29.427Z,99196.94
2023-05-22T06:08:32.293Z,99189.03
2023-05-22T06:11:34.652Z,99189.28
2023-05-22T06:14:37.384Z,99195.91
2023-05-22T06:17:39.748Z,99197.38
2023-05-22T06:20:42.150Z,99199.00
2023-05-22T06:23:44.493Z,99188.16
2023-05-22T06:26:46.717Z,99188.75
2023-05-22T06:29:49.801Z,99206.00
2023-05-22T06:32:52.507Z,99199.81
2023-05-22T06:35:55.493Z,99200.06
2023-05-22T06:38:57.881Z,99201.44
2023-05-22T06:42:00.197Z,99189.97
2023-05-22T06:45:02.534Z,99197.16
2023-05-22T06:48:04.952Z,99198.22
2023-05-22T06:51:08.371Z,99200.78
2023-05-22T06:54:12.397Z,99204.38
2023-05-22T06:57:14.699Z,99200.34
2023-05-22T07:03:21.347Z,99197.16
2023-05-22T07:06:24.782Z,99197.34
2023-05-22T07:09:27.114Z,99204.44
2023-05-22T07:12:29.680Z,99211.50
2023-05-22T07:15:31.960Z,99203.00
2023-05-22T07:18:34.288Z,99203.72
2023-05-22T07:21:36.680Z,99207.81
2023-05-22T07:24:39.155Z,99212.53
2023-05-22T07:27:41.391Z,99213.53
2023-05-22T07:30:43.608Z,99208.91
2023-05-22T07:33:46.001Z,99215.41
2023-05-22T07:36:48.802Z,99213.91
2023-05-22T07:39:51.001Z,99205.25
2023-05-22T07:42:53.203Z,99201.72
2023-05-22T07:45:55.453Z,99198.16
2023-05-22T07:48:57.723Z,99207.97
2023-05-22T07:51:59.946Z,99198.34
2023-05-22T07:55:02.182Z,99199.69
2023-05-22T07:58:05.240Z,99199.19
2023-05-22T08:01:09.422Z,99197.38
2023-05-22T08:04:12.036Z,99208.31
2023-05-22T08:07:14.403Z,99206.25
2023-05-22T08:10:19.822Z,99198.81
2023-05-22T08:13:22.456Z,99199.88
2023-05-22T08:16:25.326Z,99193.34
2023-05-22T08:19:27.715Z,99202.53
2023-05-22T08:22:30.236Z,99194.66
2023-05-22T08:25:32.862Z,99201.47
2023-05-22T08:28:35.163Z,99196.59
2023-05-22T08:31:37.561Z,99196.56
2023-05-22T08:34:40.530Z,99194.94
2023-05-22T08:37:42.921Z,99199.53
2023-05-22T08:40:47.973Z,99200.31
2023-05-22T08:43:50.370Z,99188.19
2023-05-22T08:46:53.604Z,99193.19
2023-05-22T08:49:58.079Z,99197.34
2023-05-22T08:53:03.815Z,99196.91
2023-05-22T08:56:07.246Z,99196.91
2023-05-22T08:59:10.497Z,99191.69
2023-05-22T09:02:12.896Z,99192.44
2023-05-22T09:05:17.131Z,99187.69
2023-05-22T09:08:20.844Z,99189.47
2023-05-22T09:11:24.512Z,99193.91
2023-05-22T09:14:26.842Z,99181.88
2023-05-22T09:17:29.083Z,99190.19
2023-05-22T09:20:39.243Z,99187.38
2023-05-22T09:23:41.918Z,99183.84
2023-05-22T09:26:44.167Z,99180.75
2023-05-22T09:29:56.634Z,99185.13
2023-05-22T09:32:58.881Z,99176.78
2023-05-22T09:36:01.601Z,99174.62
2023-05-22T09:39:04.750Z,99177.28
2023-05-22T09:42:08.661Z,99172.84
2023-05-22T09:45:11.353Z,99165.34
2023-05-22T09:48:17.024Z,99168.19
2023-05-22T09:51:26.512Z,99153.34
2023-05-22T09:54:29.437Z,99161.03
2023-05-22T09:57:33.970Z,99156.88
2023-05-22T10:00:36.672Z,99157.69
2023-05-22T10:03:39.378Z,99162.97
2023-05-22T10:06:42.947Z,99156.75
2023-05-22T10:09:49.529Z,99153.78
2023-05-22T10:13:02.361Z,99155.47
2023-05-22T10:16:05.014Z,99149.50
2023-05-22T10:19:08.311Z,99154.66
2023-05-22T10:22:11.793Z,99150.09
2023-05-22T10:25:14.212Z,99146.44
2023-05-22T10:28:25.551Z,99147.31
2023-05-22T10:31:37.904Z,99142.72
2023-05-22T10:34:56.441Z,99141.44
2023-05-22T10:38:23.301Z,99135.06
2023-05-22T10:41:26.340Z,99129.66
2023-05-22T10:44:28.644Z,99132.37
2023-05-22T10:47:33.523Z,99133.56
2023-05-22T10:50:36.575Z,99130.28
2023-05-22T10:53:40.945Z,99126.88
2023-05-22T10:56:43.271Z,99130.22
2023-05-22T10:59:48.719Z,99122.81
2023-05-22T11:02:51.299Z,99123.44
2023-05-22T11:05:54.418Z,99120.75
2023-05-22T11:08:57.646Z,99113.19
2023-05-22T11:12:18.090Z,99113.88
2023-05-22T11:15:30.680Z,99107.63
2023-05-22T11:18:33.136Z,99097.56
2023-05-22T11:21:46.481Z,99092.69
2023-05-22T11:24:49.186Z,99097.69
2023-05-22T11:27:51.495Z,99094.41
2023-05-22T11:30:54.145Z,99086.47
2023-05-22T11:33:56.583Z,99084.34
2023-05-22T11:37:00.151Z,99084.50
2023-05-22T11:40:05.828Z,99087.56
2023-05-22T11:43:08.142Z,99083.16
2023-05-22T11:46:11.197Z,99077.03
2023-05-22T11:49:13.546Z,99089.66
2023-05-22T11:52:18.954Z,99077.78
2023-05-22T11:55:21.216Z,99074.00
2023-05-22T11:58:33.478Z,99075.25
2023-05-22T12:01:36.434Z,99082.38
2023-05-22T12:04:38.663Z,99076.81
2023-05-22T12:07:41.147Z,99076.19
2023-05-22T12:10:48.007Z,99081.81
2023-05-22T12:14:00.552Z,99070.69
2023-05-22T12:17:06.436Z,99067.88
2023-05-22T12:20:13.214Z,99058.88
2023-05-22T12:23:48.073Z,99057.81
2023-05-22T12:26:51.656Z,99057.75
2023-05-22T12:29:56.560Z,99056.81
2023-05-22T12:32:59.118Z,99055.87
2023-05-22T12:36:07.898Z,99055.22
2023-05-22T12:39:16.654Z,99045.78
2023-05-22T12:42:18.831Z,99039.84
2023-05-22T12:45:21.072Z,99037.69
2023-05-22T12:48:23.304Z,99035.31
2023-05-22T12:51:27.153Z,99030.63
2023-05-22T12:54:29.301Z,99022.94
2023-05-22T12:57:31.668Z,99015.97
2023-05-22T13:00:34.448Z,99007.47
2023-05-22T13:03:36.688Z,99008.66
2023-05-22T13:06:38.916Z,99006.19
2023-05-22T13:09:41.762Z,99009.00
2023-05-22T13:12:46.903Z,98996.72
2023-05-22T13:15:49.327Z,98996.19
2023-05-22T13:18:51.687Z,99000.06
2023-05-22T13:21:53.910Z,98999.28
2023-05-22T13:24:56.120Z,99000.13
2023-05-22T13:27:59.720Z,98997.31
2023-05-22T13:31:02.021Z,98997.56
2023-05-22T13:34:04.693Z,98999.75
2023-05-22T13:37:07.617Z,98995.84
2023-05-22T13:40:10.135Z,98992.19
2023-05-22T13:43:12.412Z,98987.75
2023-05-22T13:46:14.847Z,98981.56
2023-05-22T13:49:17.350Z,98986.00
2023-05-22T13:52:19.609Z,98986.00
2023-05-22T13:55:22.155Z,98983.00
2023-05-22T13:58:24.374Z,98973.75
2023-05-22T14:01:26.623Z,98979.47
2023-05-22T14:04:29.000Z,98979.03
2023-05-22T14:07:31.212Z,98977.81
2023-05-22T14:10:34.591Z,98985.94
2023-05-22T14:13:36.881Z,98971.25
2023-05-22T14:16:39.441Z,98969.41
2023-05-22T14:19:41.675Z,98965.81
2023-05-22T14:22:56.322Z,98965.31
2023-05-22T14:25:59.696Z,98966.78
2023-05-22T14:29:01.877Z,98963.34
2023-05-22T14:32:05.136Z,98960.94
2023-05-22T14:35:07.800Z,98968.91
2023-05-22T14:38:10.043Z,98957.75
2023-05-22T14:41:12.760Z,98957.87
2023-05-22T14:44:15.058Z,98960.16
2023-05-22T14:47:17.259Z,98951.59
2023-05-22T14:50:20.834Z,98949.59
2023-05-22T14:53:23.438Z,98957.97
2023-05-22T14:56:26.555Z,98951.78
2023-05-22T14:59:28.783Z,98950.25
2023-05-22T15:02:31.462Z,98945.47
2023-05-22T15:05:33.839Z,98942.88
2023-05-22T15:08:36.719Z,98934.69
2023-05-22T15:11:39.064Z,98940.16
2023-05-22T15:14:41.499Z,98943.75
2023-05-22T15:17:43.797Z,98937.22
2023-05-22T15:20:46.328Z,98937.50
2023-05-22T15:23:48.607Z,98934.31
2023-05-22T15:26:51.564Z,98934.59
2023-05-22T15:29:53.779Z,98937.62
2023-05-22T15:32:56.083Z,98929.50
2023-05-22T15:35:58.344Z,98928.56
2023-05-22T15:39:00.569Z,98929.94
2023-05-22T15:42:06.795Z,98925.84
2023-05-22T15:45:09.482Z,98920.31
2023-05-22T15:48:12.550Z,98922.22
2023-05-22T15:51:14.821Z,98924.69
2023-05-22T15:54:17.437Z,98918.34
2023-05-22T15:57:20.065Z,98922.09
2023-05-22T16:00:22.488Z,98919.50
2023-05-22T16:03:24.778Z,98921.03
2023-05-22T16:06:28.538Z,98921.53
2023-05-22T16:09:32.683Z,98920.94
2023-05-22T16:12:35.094Z,98921.03
2023-05-22T16:15:39.849Z,98921.66
2023-05-22T16:18:42.373Z,98923.84
2023-05-22T16:21:44.802Z,98921.44
2023-05-22T16:24:47.204Z,98920.75
2023-05-22T16:27:49.539Z,98916.63
2023-05-22T16:30:51.821Z,98917.13
2023-05-22T16:33:54.204Z,98926.97
2023-05-22T16:36:56.438Z,98926.16
2023-05-22T16:39:58.652Z,98925.84
2023-05-22T16:43:01.067Z,98923.47
2023-05-22T16:46:03.488Z,98926.34
2023-05-22T16:49:05.845Z,98923.34
2023-05-22T16:52:08.126Z,98922.56
2023-05-22T16:55:10.617Z,98922.19
2023-05-22T16:58:13.453Z,98928.38
2023-05-22T17:01:16.016Z,98938.34
2023-05-22T17:04:20.620Z,98940.66
2023-05-22T17:07:23.502Z,98937.62
2023-05-22T17:10:25.857Z,98940.13
2023-05-22T17:13:28.147Z,98938.22
2023-05-22T17:16:30.957Z,98942.16
2023-05-22T17:19:33.320Z,98946.50
2023-05-22T17:22:37.747Z,98942.34
2023-05-22T17:25:40.146Z,98941.63
2023-05-22T17:28:42.661Z,98939.50
2023-05-22T17:31:44.923Z,98939.50
2023-05-22T17:34:47.274Z,98938.81
2023-05-22T17:37:49.458Z,98950.94
2023-05-22T17:40:54.740Z,98951.63
2023-05-22T17:44:00.720Z,98953.88
2023-05-22T17:47:04.476Z,98954.41
2023-05-22T17:50:07.411Z,98946.09
2023-05-22T17:53:09.681Z,98943.19
2023-05-22T17:56:11.968Z,98941.81
2023-05-22T17:59:14.219Z,98946.47
2023-05-22T18:02:16.418Z,98939.72
2023-05-22T18:05:18.686Z,98941.94
2023-05-22T18:08:21.582Z,98949.66
2023-05-22T18:11:24.056Z,98948.06
2023-05-22T18:14:26.875Z,98956.13
2023-05-22T18:17:29.172Z,98960.62
2023-05-22T18:20:33.119Z,98956.87
2023-05-22T18:23:35.417Z,98964.81
2023-05-22T18:26:37.641Z,98961.38
2023-05-22T18:29:40.138Z,98960.91
2023-05-22T18:32:42.461Z,98968.16
2023-05-22T18:35:44.760Z,98975.50
2023-05-22T18:38:47.098Z,98969.28
2023-05-22T18:41:49.301Z,98974.41
2023-05-22T18:44:51.680Z,98969.59
2023-05-22T18:47:53.948Z,98969.84
2023-05-22T18:50:57.663Z,98970.38
2023-05-22T18:54:00.113Z,98980.06
2023-05-22T18:57:02.323Z,98990.25
2023-05-22T19:00:05.176Z,98988.13
2023-05-22T19:03:11.268Z,98986.78
2023-05-22T19:06:13.653Z,98983.50
2023-05-22T19:09:16.623Z,98995.25
2023-05-22T19:12:19.207Z,98994.37
2023-05-22T19:15:21.716Z,98997.94
2023-05-22T19:18:24.559Z,98999.50
2023-05-22T19:21:26.864Z,98999.22
2023-05-22T19:24:29.163Z,98998.69
2023-05-22T19:27:31.452Z,98994.41
2023-05-22T19:30:33.705Z,98998.31
2023-05-22T19:33:35.928Z,98995.28
2023-05-22T19:36:38.229Z,98993.72
2023-05-22T19:39:40.673Z,98996.25
2023-05-22T19:42:43.000Z,99003.84
2023-05-22T19:45:45.733Z,98998.38
2023-05-22T19:48:48.115Z,98998.88
2023-05-22T19:51:50.497Z,99004.72
2023-05-22T19:54:52.876Z,98996.25
2023-05-22T19:57:55.082Z,98994.06
2023-05-22T20:00:57.291Z,98997.06
2023-05-22T20:04:01.052Z,98996.16
2023-05-22T20:07:04.257Z,98992.09
2023-05-22T20:10:07.086Z,98988.66
2023-05-22T20:13:09.247Z,98992.75
2023-05-22T20:16:12.884Z,98992.16
2023-05-22T20:19:15.368Z,98997.22
2023-05-22T20:22:17.661Z,98998.78
2023-05-22T20:25:21.266Z,98998.59
2023-05-22T20:28:23.509Z,98993.28
2023-05-22T20:31:25.987Z,99003.97
2023-05-22T20:34:28.577Z,98997.13
2023-05-22T20:37:34.801Z,98995.66
2023-05-22T20:40:37.755Z,98996.16
2023-05-22T20:43:43.297Z,98990.31
2023-05-22T20:46:45.844Z,98990.03
2023-05-22T20:49:48.107Z,98995.94
2023-05-22T20:52:50.465Z,98994.78
2023-05-22T20:55:53.443Z,98995.34
2023-05-22T20:58:56.665Z,98998.25
2023-05-22T21:01:59.650Z,98996.22
2023-05-22T21:05:03.361Z,98992.16
2023-05-22T21:08:08.120Z,98993.16
2023-05-22T21:11:10.463Z,98988.25
2023-05-22T21:14:12.821Z,98989.38
2023-05-22T21:17:15.127Z,98979.75
2023-05-22T21:20:17.447Z,98981.66
2023-05-22T21:23:19.676Z,98993.28
2023-05-22T21:26:23.074Z,98989.78
2023-05-22T21:29:25.527Z,98996.13
2023-05-22T21:32:27.857Z,98996.81
2023-05-22T21:35:30.081Z,98996.16
2023-05-22T21:38:32.327Z,98989.50
2023-05-22T21:41:34.756Z,98994.75
2023-05-22T21:44:37.565Z,98991.62
2023-05-22T21:47:39.830Z,98993.69
2023-05-22T21:50:42.244Z,98995.50
2023-05-22T21:53:44.591Z,99006.84
2023-05-22T21:56:46.889Z,99007.03
2023-05-22T21:59:50.812Z,99001.44
2023-05-22T22:02:53.075Z,98997.13
2023-05-22T22:05:55.369Z,98997.75
2023-05-22T22:08:59.783Z,99003.53
2023-05-22T22:12:02.032Z,98995.47
2023-05-22T22:15:04.547Z,98991.59
2023-05-22T22:18:06.847Z,98992.81
2023-05-22T22:21:09.089Z,98991.25
2023-05-22T22:24:11.708Z,98995.34
2023-05-22T22:27:13.952Z,98988.78
2023-05-22T22:30:16.300Z,98996.09
2023-05-22T22:33:18.497Z,98986.03
2023-05-22T22:36:21.020Z,98985.22
2023-05-22T22:39:23.226Z,98988.72
2023-05-22T22:42:26.610Z,98984.53
2023-05-22T22:45:28.938Z,98982.91
2023-05-22T22:48:31.176Z,98983.34
2023-05-22T22:51:34.553Z,98986.28
2023-05-22T22:54:36.814Z,98980.03
2023-05-22T22:57:39.175Z,98988.03
2023-05-22T23:00:41.462Z,98987.66
2023-05-22T23:03:43.655Z,98978.97
2023-05-22T23:06:46.148Z,98981.13
2023-05-22T23:09:48.411Z,98968.94
2023-05-22T23:12:50.716Z,98965.88
2023-05-22T23:15:53.117Z,98958.97
2023-05-22T23:18:55.418Z,98964.53
2023-05-22T23:21:57.813Z,98973.59
2023-05-22T23:25:00.116Z,98961.97
2023-05-22T23:28:02.360Z,98970.25
2023-05-22T23:31:04.580Z,98968.72
2023-05-22T23:34:06.845Z,98967.09
2023-05-22T23:37:09.155Z,98957.66
2023-05-22T23:40:11.753Z,98954.41
2023-05-22T23:43:13.941Z,98958.38
2023-05-22T23:46:16.827Z,98963.81
2023-05-22T23:49:19.089Z,98966.56
2023-05-22T23:52:22.132Z,98959.19
2023-05-22T23:55:24.377Z,98959.06
2023-05-22T23:58:29.372Z,98967.28
